sensor_id;sensor_type;location;lat;lon;timestamp;P1;durP1;ratioP1;P2;durP2;ratioP2
41099;SDS011;26844;53.686;-6.346;2023-12-29T00:01:29;1.30;;;1.30;;
41099;SDS011;26844;53.686;-6.346;2023-12-29T00:03:55;1.20;;;1.20;;
41099;SDS011;26844;53.686;-6.346;2023-12-29T00:06:20;1.20;;;1.20;;
41099;SDS011;26844;53.686;-6.346;2023-12-29T00:08:45;1.27;;;1.27;;
41099;SDS011;26844;53.686;-6.346;2023-12-29T00:11:18;1.55;;;1.55;;
41099;SDS011;26844;53.686;-6.346;2023-12-29T00:13:44;1.45;;;1.45;;
41099;SDS011;26844;53.686;-6.346;2023-12-29T00:16:09;1.25;;;1.25;;
41099;SDS011;26844;53.686;-6.346;2023-12-29T00:18:36;1.50;;;1.50;;
41099;SDS011;26844;53.686;-6.346;2023-12-29T00:21:01;1.20;;;1.20;;
41099;SDS011;26844;53.686;-6.346;2023-12-29T00:23:27;1.17;;;1.17;;
41099;SDS011;26844;53.686;-6.346;2023-12-29T00:25:52;1.15;;;1.15;;
41099;SDS011;26844;53.686;-6.346;2023-12-29T00:28:18;1.08;;;1.08;;
41099;SDS011;26844;53.686;-6.346;2023-12-29T00:30:43;0.95;;;0.95;;
41099;SDS011;26844;53.686;-6.346;2023-12-29T00:33:08;1.00;;;1.00;;
41099;SDS011;26844;53.686;-6.346;2023-12-29T00:35:36;0.98;;;0.98;;
41099;SDS011;26844;53.686;-6.346;2023-12-29T00:40:26;1.17;;;1.17;;
41099;SDS011;26844;53.686;-6.346;2023-12-29T00:42:52;0.80;;;0.80;;
41099;SDS011;26844;53.686;-6.346;2023-12-29T00:45:17;0.90;;;0.90;;
41099;SDS011;26844;53.686;-6.346;2023-12-29T00:47:42;1.00;;;1.00;;
41099;SDS011;26844;53.686;-6.346;2023-12-29T00:50:08;1.10;;;1.10;;
41099;SDS011;26844;53.686;-6.346;2023-12-29T00:52:33;1.10;;;1.10;;
41099;SDS011;26844;53.686;-6.346;2023-12-29T00:54:58;1.10;;;1.10;;
41099;SDS011;26844;53.686;-6.346;2023-12-29T00:57:24;1.08;;;1.08;;
41099;SDS011;26844;53.686;-6.346;2023-12-29T00:59:49;1.20;;;1.20;;
41099;SDS011;26844;53.686;-6.346;2023-12-29T01:02:14;1.10;;;1.10;;
41099;SDS011;26844;53.686;-6.346;2023-12-29T01:04:40;1.10;;;1.10;;
41099;SDS011;26844;53.686;-6.346;2023-12-29T01:07:05;0.85;;;0.85;;
41099;SDS011;26844;53.686;-6.346;2023-12-29T01:09:30;1.30;;;1.30;;
41099;SDS011;26844;53.686;-6.346;2023-12-29T01:11:55;1.30;;;1.30;;
41099;SDS011;26844;53.686;-6.346;2023-12-29T01:14:21;1.05;;;1.05;;
41099;SDS011;26844;53.686;-6.346;2023-12-29T01:16:46;1.00;;;1.00;;
41099;SDS011;26844;53.686;-6.346;2023-12-29T01:19:11;1.05;;;1.05;;
41099;SDS011;26844;53.686;-6.346;2023-12-29T01:21:39;1.30;;;1.30;;
41099;SDS011;26844;53.686;-6.346;2023-12-29T01:24:05;1.05;;;1.05;;
41099;SDS011;26844;53.686;-6.346;2023-12-29T01:26:32;1.20;;;1.20;;
41099;SDS011;26844;53.686;-6.346;2023-12-29T01:28:57;1.10;;;1.10;;
41099;SDS011;26844;53.686;-6.346;2023-12-29T01:31:22;0.98;;;0.98;;
41099;SDS011;26844;53.686;-6.346;2023-12-29T01:33:47;1.17;;;1.17;;
41099;SDS011;26844;53.686;-6.346;2023-12-29T01:36:18;1.00;;;1.00;;
41099;SDS011;26844;53.686;-6.346;2023-12-29T01:38:44;1.25;;;1.25;;
41099;SDS011;26844;53.686;-6.346;2023-12-29T01:41:09;0.90;;;0.90;;
41099;SDS011;26844;53.686;-6.346;2023-12-29T01:43:34;1.20;;;1.20;;
41099;SDS011;26844;53.686;-6.346;2023-12-29T01:46:00;0.80;;;0.80;;
41099;SDS011;26844;53.686;-6.346;2023-12-29T01:48:25;0.80;;;0.80;;
41099;SDS011;26844;53.686;-6.346;2023-12-29T01:50:50;0.90;;;0.90;;
41099;SDS011;26844;53.686;-6.346;2023-12-29T01:53:16;1.00;;;1.00;;
41099;SDS011;26844;53.686;-6.346;2023-12-29T01:55:41;0.88;;;0.88;;
41099;SDS011;26844;53.686;-6.346;2023-12-29T01:58:07;0.93;;;0.93;;
41099;SDS011;26844;53.686;-6.346;2023-12-29T02:00:33;1.10;;;1.10;;
41099;SDS011;26844;53.686;-6.346;2023-12-29T02:02:58;1.05;;;1.05;;
41099;SDS011;26844;53.686;-6.346;2023-12-29T02:05:24;1.10;;;1.10;;
41099;SDS011;26844;53.686;-6.346;2023-12-29T02:07:51;1.27;;;1.27;;
41099;SDS011;26844;53.686;-6.346;2023-12-29T02:10:17;1.20;;;1.20;;
41099;SDS011;26844;53.686;-6.346;2023-12-29T02:12:43;1.20;;;1.20;;
41099;SDS011;26844;53.686;-6.346;2023-12-29T02:15:09;1.07;;;1.07;;
41099;SDS011;26844;53.686;-6.346;2023-12-29T02:17:40;1.20;;;1.20;;
41099;SDS011;26844;53.686;-6.346;2023-12-29T02:20:07;1.20;;;1.20;;
41099;SDS011;26844;53.686;-6.346;2023-12-29T02:22:32;1.35;;;1.35;;
41099;SDS011;26844;53.686;-6.346;2023-12-29T02:24:57;1.10;;;1.10;;
41099;SDS011;26844;53.686;-6.346;2023-12-29T02:32:32;1.05;;;1.05;;
41099;SDS011;26844;53.686;-6.346;2023-12-29T02:34:59;1.10;;;1.10;;
41099;SDS011;26844;53.686;-6.346;2023-12-29T02:37:25;1.20;;;1.20;;
41099;SDS011;26844;53.686;-6.346;2023-12-29T02:39:51;0.95;;;0.95;;
41099;SDS011;26844;53.686;-6.346;2023-12-29T02:42:16;1.00;;;1.00;;
41099;SDS011;26844;53.686;-6.346;2023-12-29T02:44:41;0.88;;;0.88;;
41099;SDS011;26844;53.686;-6.346;2023-12-29T02:47:07;0.90;;;0.90;;
41099;SDS011;26844;53.686;-6.346;2023-12-29T02:49:32;1.20;;;1.20;;
41099;SDS011;26844;53.686;-6.346;2023-12-29T02:51:57;1.10;;;1.10;;
41099;SDS011;26844;53.686;-6.346;2023-12-29T02:54:22;1.10;;;1.10;;
41099;SDS011;26844;53.686;-6.346;2023-12-29T02:56:48;1.05;;;1.05;;
41099;SDS011;26844;53.686;-6.346;2023-12-29T02:59:13;1.08;;;1.08;;
41099;SDS011;26844;53.686;-6.346;2023-12-29T03:01:38;1.10;;;1.10;;
41099;SDS011;26844;53.686;-6.346;2023-12-29T03:04:03;1.17;;;1.17;;
41099;SDS011;26844;53.686;-6.346;2023-12-29T03:06:29;1.10;;;1.10;;
41099;SDS011;26844;53.686;-6.346;2023-12-29T03:08:54;1.00;;;1.00;;
41099;SDS011;26844;53.686;-6.346;2023-12-29T03:11:19;1.10;;;1.10;;
41099;SDS011;26844;53.686;-6.346;2023-12-29T03:13:45;0.93;;;0.93;;
41099;SDS011;26844;53.686;-6.346;2023-12-29T03:16:10;1.15;;;1.15;;
41099;SDS011;26844;53.686;-6.346;2023-12-29T03:18:35;1.20;;;1.20;;
41099;SDS011;26844;53.686;-6.346;2023-12-29T03:21:04;0.90;;;0.90;;
41099;SDS011;26844;53.686;-6.346;2023-12-29T03:23:30;1.20;;;1.20;;
41099;SDS011;26844;53.686;-6.346;2023-12-29T03:25:55;1.00;;;1.00;;
41099;SDS011;26844;53.686;-6.346;2023-12-29T03:28:20;1.23;;;1.23;;
41099;SDS011;26844;53.686;-6.346;2023-12-29T03:30:45;0.95;;;0.95;;
41099;SDS011;26844;53.686;-6.346;2023-12-29T03:33:11;1.10;;;1.10;;
41099;SDS011;26844;53.686;-6.346;2023-12-29T03:35:36;1.10;;;1.10;;
41099;SDS011;26844;53.686;-6.346;2023-12-29T03:38:01;1.13;;;1.13;;
41099;SDS011;26844;53.686;-6.346;2023-12-29T03:40:27;1.25;;;1.25;;
41099;SDS011;26844;53.686;-6.346;2023-12-29T03:42:52;1.20;;;1.20;;
41099;SDS011;26844;53.686;-6.346;2023-12-29T03:45:17;1.25;;;1.25;;
41099;SDS011;26844;53.686;-6.346;2023-12-29T03:47:43;1.30;;;1.30;;
41099;SDS011;26844;53.686;-6.346;2023-12-29T03:50:08;1.30;;;1.30;;
41099;SDS011;26844;53.686;-6.346;2023-12-29T03:52:33;1.20;;;1.20;;
41099;SDS011;26844;53.686;-6.346;2023-12-29T03:54:59;1.30;;;1.30;;
41099;SDS011;26844;53.686;-6.346;2023-12-29T03:57:24;1.30;;;1.30;;
41099;SDS011;26844;53.686;-6.346;2023-12-29T03:59:49;1.20;;;1.20;;
41099;SDS011;26844;53.686;-6.346;2023-12-29T04:02:14;1.30;;;1.30;;
41099;SDS011;26844;53.686;-6.346;2023-12-29T04:04:40;1.25;;;1.25;;
41099;SDS011;26844;53.686;-6.346;2023-12-29T04:07:05;1.27;;;1.27;;
41099;SDS011;26844;53.686;-6.346;2023-12-29T04:09:30;1.15;;;1.15;;
41099;SDS011;26844;53.686;-6.346;2023-12-29T04:11:56;1.13;;;1.13;;
41099;SDS011;26844;53.686;-6.346;2023-12-29T04:14:21;1.13;;;1.13;;
41099;SDS011;26844;53.686;-6.346;2023-12-29T04:16:46;1.00;;;1.00;;
41099;SDS011;26844;53.686;-6.346;2023-12-29T04:19:11;0.93;;;0.93;;
41099;SDS011;26844;53.686;-6.346;2023-12-29T04:21:37;1.30;;;1.30;;
41099;SDS011;26844;53.686;-6.346;2023-12-29T04:24:02;1.00;;;1.00;;
41099;SDS011;26844;53.686;-6.346;2023-12-29T04:26:35;1.00;;;1.00;;
41099;SDS011;26844;53.686;-6.346;2023-12-29T04:29:00;0.82;;;0.82;;
41099;SDS011;26844;53.686;-6.346;2023-12-29T04:31:25;1.00;;;1.00;;
41099;SDS011;26844;53.686;-6.346;2023-12-29T04:33:50;0.85;;;0.85;;
41099;SDS011;26844;53.686;-6.346;2023-12-29T04:36:16;0.93;;;0.93;;
41099;SDS011;26844;53.686;-6.346;2023-12-29T04:38:41;0.75;;;0.75;;
41099;SDS011;26844;53.686;-6.346;2023-12-29T04:41:06;0.70;;;0.70;;
41099;SDS011;26844;53.686;-6.346;2023-12-29T04:43:32;0.80;;;0.80;;
41099;SDS011;26844;53.686;-6.346;2023-12-29T04:45:57;0.80;;;0.80;;
41099;SDS011;26844;53.686;-6.346;2023-12-29T04:48:23;0.60;;;0.60;;
41099;SDS011;26844;53.686;-6.346;2023-12-29T04:50:48;0.70;;;0.70;;
41099;SDS011;26844;53.686;-6.346;2023-12-29T04:53:13;0.60;;;0.60;;
41099;SDS011;26844;53.686;-6.346;2023-12-29T04:55:38;0.70;;;0.70;;
41099;SDS011;26844;53.686;-6.346;2023-12-29T04:58:04;0.65;;;0.65;;
41099;SDS011;26844;53.686;-6.346;2023-12-29T05:00:29;0.60;;;0.60;;
41099;SDS011;26844;53.686;-6.346;2023-12-29T05:02:54;0.60;;;0.60;;
41099;SDS011;26844;53.686;-6.346;2023-12-29T05:05:19;0.70;;;0.70;;
41099;SDS011;26844;53.686;-6.346;2023-12-29T05:07:45;0.75;;;0.75;;
41099;SDS011;26844;53.686;-6.346;2023-12-29T05:10:10;0.70;;;0.70;;
41099;SDS011;26844;53.686;-6.346;2023-12-29T05:12:35;0.70;;;0.70;;
41099;SDS011;26844;53.686;-6.346;2023-12-29T05:15:00;0.70;;;0.70;;
41099;SDS011;26844;53.686;-6.346;2023-12-29T05:17:26;0.70;;;0.70;;
41099;SDS011;26844;53.686;-6.346;2023-12-29T05:19:51;0.80;;;0.80;;
41099;SDS011;26844;53.686;-6.346;2023-12-29T05:22:16;1.00;;;1.00;;
41099;SDS011;26844;53.686;-6.346;2023-12-29T05:24:43;1.00;;;1.00;;
41099;SDS011;26844;53.686;-6.346;2023-12-29T05:27:08;0.90;;;0.90;;
41099;SDS011;26844;53.686;-6.346;2023-12-29T05:29:33;0.90;;;0.90;;
41099;SDS011;26844;53.686;-6.346;2023-12-29T05:31:59;0.80;;;0.80;;
41099;SDS011;26844;53.686;-6.346;2023-12-29T05:34:24;1.00;;;1.00;;
41099;SDS011;26844;53.686;-6.346;2023-12-29T05:36:49;0.90;;;0.90;;
41099;SDS011;26844;53.686;-6.346;2023-12-29T05:39:14;0.90;;;0.90;;
41099;SDS011;26844;53.686;-6.346;2023-12-29T05:41:40;0.98;;;0.98;;
41099;SDS011;26844;53.686;-6.346;2023-12-29T05:44:05;0.80;;;0.80;;
41099;SDS011;26844;53.686;-6.346;2023-12-29T05:46:30;0.80;;;0.80;;
41099;SDS011;26844;53.686;-6.346;2023-12-29T05:48:55;0.90;;;0.90;;
41099;SDS011;26844;53.686;-6.346;2023-12-29T05:51:21;0.77;;;0.77;;
41099;SDS011;26844;53.686;-6.346;2023-12-29T05:53:47;0.75;;;0.75;;
41099;SDS011;26844;53.686;-6.346;2023-12-29T05:56:12;0.90;;;0.90;;
41099;SDS011;26844;53.686;-6.346;2023-12-29T05:58:38;0.80;;;0.80;;
41099;SDS011;26844;53.686;-6.346;2023-12-29T06:01:03;0.80;;;0.80;;
41099;SDS011;26844;53.686;-6.346;2023-12-29T06:03:28;0.90;;;0.90;;
41099;SDS011;26844;53.686;-6.346;2023-12-29T06:05:54;1.15;;;1.15;;
41099;SDS011;26844;53.686;-6.346;2023-12-29T06:08:19;1.00;;;1.00;;
41099;SDS011;26844;53.686;-6.346;2023-12-29T06:10:45;1.10;;;1.10;;
41099;SDS011;26844;53.686;-6.346;2023-12-29T06:13:10;1.35;;;1.35;;
41099;SDS011;26844;53.686;-6.346;2023-12-29T06:15:35;1.20;;;1.20;;
41099;SDS011;26844;53.686;-6.346;2023-12-29T06:18:01;1.40;;;1.40;;
41099;SDS011;26844;53.686;-6.346;2023-12-29T06:20:27;1.20;;;1.20;;
41099;SDS011;26844;53.686;-6.346;2023-12-29T06:22:52;1.60;;;1.60;;
41099;SDS011;26844;53.686;-6.346;2023-12-29T06:25:17;1.40;;;1.40;;
41099;SDS011;26844;53.686;-6.346;2023-12-29T06:27:43;1.52;;;1.52;;
41099;SDS011;26844;53.686;-6.346;2023-12-29T06:30:08;1.42;;;1.42;;
41099;SDS011;26844;53.686;-6.346;2023-12-29T06:32:34;1.45;;;1.45;;
41099;SDS011;26844;53.686;-6.346;2023-12-29T06:34:59;1.80;;;1.80;;
41099;SDS011;26844;53.686;-6.346;2023-12-29T06:37:24;1.50;;;1.50;;
41099;SDS011;26844;53.686;-6.346;2023-12-29T06:39:49;1.45;;;1.45;;
41099;SDS011;26844;53.686;-6.346;2023-12-29T06:42:15;1.35;;;1.35;;
41099;SDS011;26844;53.686;-6.346;2023-12-29T06:44:40;1.20;;;1.20;;
41099;SDS011;26844;53.686;-6.346;2023-12-29T06:47:05;1.27;;;1.27;;
41099;SDS011;26844;53.686;-6.346;2023-12-29T06:49:32;1.30;;;1.30;;
41099;SDS011;26844;53.686;-6.346;2023-12-29T06:51:57;1.25;;;1.25;;
41099;SDS011;26844;53.686;-6.346;2023-12-29T06:54:22;1.20;;;1.20;;
41099;SDS011;26844;53.686;-6.346;2023-12-29T06:56:48;1.25;;;1.25;;
41099;SDS011;26844;53.686;-6.346;2023-12-29T06:59:13;0.95;;;0.95;;
41099;SDS011;26844;53.686;-6.346;2023-12-29T07:01:39;1.27;;;1.27;;
41099;SDS011;26844;53.686;-6.346;2023-12-29T07:04:05;1.20;;;1.20;;
41099;SDS011;26844;53.686;-6.346;2023-12-29T07:06:30;1.17;;;1.17;;
41099;SDS011;26844;53.686;-6.346;2023-12-29T07:08:56;1.10;;;1.10;;
41099;SDS011;26844;53.686;-6.346;2023-12-29T07:11:21;1.20;;;1.20;;
41099;SDS011;26844;53.686;-6.346;2023-12-29T07:13:46;1.33;;;1.33;;
41099;SDS011;26844;53.686;-6.346;2023-12-29T07:16:11;1.20;;;1.20;;
41099;SDS011;26844;53.686;-6.346;2023-12-29T07:18:37;1.10;;;1.10;;
41099;SDS011;26844;53.686;-6.346;2023-12-29T07:21:02;1.60;;;1.60;;
41099;SDS011;26844;53.686;-6.346;2023-12-29T07:23:27;1.50;;;1.50;;
41099;SDS011;26844;53.686;-6.346;2023-12-29T07:25:53;1.33;;;1.33;;
41099;SDS011;26844;53.686;-6.346;2023-12-29T07:28:18;1.38;;;1.38;;
41099;SDS011;26844;53.686;-6.346;2023-12-29T07:30:43;1.30;;;1.30;;
41099;SDS011;26844;53.686;-6.346;2023-12-29T07:33:09;1.45;;;1.45;;
41099;SDS011;26844;53.686;-6.346;2023-12-29T07:35:34;1.35;;;1.35;;
41099;SDS011;26844;53.686;-6.346;2023-12-29T07:37:59;1.50;;;1.50;;
41099;SDS011;26844;53.686;-6.346;2023-12-29T07:40:25;1.50;;;1.50;;
41099;SDS011;26844;53.686;-6.346;2023-12-29T07:42:51;1.73;;;1.73;;
41099;SDS011;26844;53.686;-6.346;2023-12-29T07:45:16;1.60;;;1.60;;
41099;SDS011;26844;53.686;-6.346;2023-12-29T07:47:42;1.80;;;1.80;;
41099;SDS011;26844;53.686;-6.346;2023-12-29T07:50:07;2.10;;;2.10;;
41099;SDS011;26844;53.686;-6.346;2023-12-29T07:52:33;1.80;;;1.80;;
41099;SDS011;26844;53.686;-6.346;2023-12-29T07:54:58;2.00;;;2.00;;
41099;SDS011;26844;53.686;-6.346;2023-12-29T07:57:23;2.00;;;2.00;;
41099;SDS011;26844;53.686;-6.346;2023-12-29T07:59:49;2.50;;;2.40;;
41099;SDS011;26844;53.686;-6.346;2023-12-29T08:02:14;2.30;;;2.30;;
41099;SDS011;26844;53.686;-6.346;2023-12-29T08:04:39;2.60;;;2.50;;
41099;SDS011;26844;53.686;-6.346;2023-12-29T08:07:04;2.70;;;2.60;;
41099;SDS011;26844;53.686;-6.346;2023-12-29T08:09:30;2.65;;;2.55;;
41099;SDS011;26844;53.686;-6.346;2023-12-29T08:11:55;2.63;;;2.53;;
41099;SDS011;26844;53.686;-6.346;2023-12-29T08:14:20;2.17;;;2.17;;
41099;SDS011;26844;53.686;-6.346;2023-12-29T08:16:45;2.38;;;2.30;;
41099;SDS011;26844;53.686;-6.346;2023-12-29T08:19:11;2.42;;;2.35;;
41099;SDS011;26844;53.686;-6.346;2023-12-29T08:21:36;2.60;;;2.50;;
41099;SDS011;26844;53.686;-6.346;2023-12-29T08:24:02;2.03;;;2.03;;
41099;SDS011;26844;53.686;-6.346;2023-12-29T08:26:28;2.60;;;2.50;;
41099;SDS011;26844;53.686;-6.346;2023-12-29T08:28:53;2.70;;;2.60;;
41099;SDS011;26844;53.686;-6.346;2023-12-29T08:31:19;2.88;;;2.78;;
41099;SDS011;26844;53.686;-6.346;2023-12-29T08:33:44;3.00;;;2.90;;
41099;SDS011;26844;53.686;-6.346;2023-12-29T08:36:11;2.70;;;2.60;;
41099;SDS011;26844;53.686;-6.346;2023-12-29T08:38:36;2.67;;;2.58;;
41099;SDS011;26844;53.686;-6.346;2023-12-29T08:41:01;2.65;;;2.55;;
41099;SDS011;26844;53.686;-6.346;2023-12-29T08:43:26;2.67;;;2.58;;
41099;SDS011;26844;53.686;-6.346;2023-12-29T08:45:52;2.92;;;2.83;;
41099;SDS011;26844;53.686;-6.346;2023-12-29T08:48:17;2.88;;;2.78;;
41099;SDS011;26844;53.686;-6.346;2023-12-29T08:50:42;2.53;;;2.42;;
41099;SDS011;26844;53.686;-6.346;2023-12-29T08:53:08;2.60;;;2.50;;
41099;SDS011;26844;53.686;-6.346;2023-12-29T08:55:33;2.80;;;2.70;;
41099;SDS011;26844;53.686;-6.346;2023-12-29T08:57:59;3.10;;;3.00;;
41099;SDS011;26844;53.686;-6.346;2023-12-29T09:00:24;2.50;;;2.40;;
41099;SDS011;26844;53.686;-6.346;2023-12-29T09:02:49;2.47;;;2.38;;
41099;SDS011;26844;53.686;-6.346;2023-12-29T09:05:15;2.80;;;2.70;;
41099;SDS011;26844;53.686;-6.346;2023-12-29T09:07:40;2.30;;;2.28;;
41099;SDS011;26844;53.686;-6.346;2023-12-29T09:10:05;2.25;;;2.25;;
41099;SDS011;26844;53.686;-6.346;2023-12-29T09:12:36;2.60;;;2.50;;
41099;SDS011;26844;53.686;-6.346;2023-12-29T09:15:05;2.50;;;2.40;;
41099;SDS011;26844;53.686;-6.346;2023-12-29T09:17:31;2.83;;;2.72;;
41099;SDS011;26844;53.686;-6.346;2023-12-29T09:19:56;2.83;;;2.72;;
41099;SDS011;26844;53.686;-6.346;2023-12-29T09:22:21;2.70;;;2.60;;
41099;SDS011;26844;53.686;-6.346;2023-12-29T09:24:46;2.78;;;2.67;;
41099;SDS011;26844;53.686;-6.346;2023-12-29T09:27:12;3.08;;;2.97;;
41099;SDS011;26844;53.686;-6.346;2023-12-29T09:29:38;3.17;;;3.08;;
41099;SDS011;26844;53.686;-6.346;2023-12-29T09:32:03;3.22;;;3.13;;
41099;SDS011;26844;53.686;-6.346;2023-12-29T09:34:29;3.05;;;2.95;;
41099;SDS011;26844;53.686;-6.346;2023-12-29T09:36:54;3.30;;;3.20;;
41099;SDS011;26844;53.686;-6.346;2023-12-29T09:39:19;3.13;;;3.03;;
41099;SDS011;26844;53.686;-6.346;2023-12-29T09:41:45;3.20;;;3.10;;
41099;SDS011;26844;53.686;-6.346;2023-12-29T09:44:13;2.58;;;2.47;;
41099;SDS011;26844;53.686;-6.346;2023-12-29T09:46:38;3.00;;;2.90;;
41099;SDS011;26844;53.686;-6.346;2023-12-29T09:49:06;3.13;;;3.03;;
41099;SDS011;26844;53.686;-6.346;2023-12-29T09:51:32;2.50;;;2.40;;
41099;SDS011;26844;53.686;-6.346;2023-12-29T09:53:58;2.28;;;2.28;;
41099;SDS011;26844;53.686;-6.346;2023-12-29T09:56:24;2.08;;;2.08;;
41099;SDS011;26844;53.686;-6.346;2023-12-29T09:58:49;2.17;;;2.17;;
41099;SDS011;26844;53.686;-6.346;2023-12-29T10:01:17;2.50;;;2.40;;
41099;SDS011;26844;53.686;-6.346;2023-12-29T10:03:43;2.30;;;2.27;;
41099;SDS011;26844;53.686;-6.346;2023-12-29T10:06:08;2.05;;;2.05;;
41099;SDS011;26844;53.686;-6.346;2023-12-29T10:08:34;2.00;;;2.00;;
41099;SDS011;26844;53.686;-6.346;2023-12-29T10:11:00;1.95;;;1.95;;
41099;SDS011;26844;53.686;-6.346;2023-12-29T10:13:27;1.90;;;1.90;;
41099;SDS011;26844;53.686;-6.346;2023-12-29T10:18:27;1.88;;;1.88;;
41099;SDS011;26844;53.686;-6.346;2023-12-29T10:23:41;1.75;;;1.75;;
41099;SDS011;26844;53.686;-6.346;2023-12-29T10:26:10;2.10;;;2.10;;
41099;SDS011;26844;53.686;-6.346;2023-12-29T10:28:35;1.92;;;1.92;;
41099;SDS011;26844;53.686;-6.346;2023-12-29T10:31:01;1.73;;;1.73;;
41099;SDS011;26844;53.686;-6.346;2023-12-29T10:33:26;2.35;;;2.30;;
41099;SDS011;26844;53.686;-6.346;2023-12-29T10:35:58;1.77;;;1.77;;
41099;SDS011;26844;53.686;-6.346;2023-12-29T10:38:28;1.77;;;1.77;;
41099;SDS011;26844;53.686;-6.346;2023-12-29T10:40:53;1.80;;;1.80;;
41099;SDS011;26844;53.686;-6.346;2023-12-29T10:43:22;1.60;;;1.60;;
41099;SDS011;26844;53.686;-6.346;2023-12-29T10:45:47;1.80;;;1.80;;
41099;SDS011;26844;53.686;-6.346;2023-12-29T10:48:12;2.08;;;2.08;;
41099;SDS011;26844;53.686;-6.346;2023-12-29T10:50:46;1.70;;;1.70;;
41099;SDS011;26844;53.686;-6.346;2023-12-29T10:53:11;1.50;;;1.50;;
41099;SDS011;26844;53.686;-6.346;2023-12-29T10:55:42;1.73;;;1.73;;
41099;SDS011;26844;53.686;-6.346;2023-12-29T10:58:07;1.83;;;1.83;;
41099;SDS011;26844;53.686;-6.346;2023-12-29T11:00:32;1.63;;;1.63;;
41099;SDS011;26844;53.686;-6.346;2023-12-29T11:02:58;1.50;;;1.50;;
41099;SDS011;26844;53.686;-6.346;2023-12-29T11:05:26;1.50;;;1.50;;
41099;SDS011;26844;53.686;-6.346;2023-12-29T11:07:52;1.50;;;1.50;;
41099;SDS011;26844;53.686;-6.346;2023-12-29T11:10:19;1.60;;;1.60;;
41099;SDS011;26844;53.686;-6.346;2023-12-29T11:12:45;1.60;;;1.60;;
41099;SDS011;26844;53.686;-6.346;2023-12-29T11:15:11;1.52;;;1.52;;
41099;SDS011;26844;53.686;-6.346;2023-12-29T11:17:38;2.15;;;2.15;;
41099;SDS011;26844;53.686;-6.346;2023-12-29T11:20:06;1.92;;;1.92;;
41099;SDS011;26844;53.686;-6.346;2023-12-29T11:22:31;1.40;;;1.40;;
41099;SDS011;26844;53.686;-6.346;2023-12-29T11:24:57;1.58;;;1.58;;
41099;SDS011;26844;53.686;-6.346;2023-12-29T11:27:27;1.27;;;1.27;;
41099;SDS011;26844;53.686;-6.346;2023-12-29T11:29:54;1.25;;;1.25;;
41099;SDS011;26844;53.686;-6.346;2023-12-29T11:32:20;1.40;;;1.40;;
41099;SDS011;26844;53.686;-6.346;2023-12-29T11:34:49;1.33;;;1.33;;
41099;SDS011;26844;53.686;-6.346;2023-12-29T11:39:50;1.20;;;1.20;;
41099;SDS011;26844;53.686;-6.346;2023-12-29T11:42:19;1.27;;;1.27;;
41099;SDS011;26844;53.686;-6.346;2023-12-29T11:44:46;1.33;;;1.33;;
41099;SDS011;26844;53.686;-6.346;2023-12-29T11:50:00;1.30;;;1.30;;
41099;SDS011;26844;53.686;-6.346;2023-12-29T11:52:37;1.40;;;1.40;;
41099;SDS011;26844;53.686;-6.346;2023-12-29T11:55:09;1.30;;;1.30;;
41099;SDS011;26844;53.686;-6.346;2023-12-29T11:57:34;1.30;;;1.30;;
41099;SDS011;26844;53.686;-6.346;2023-12-29T12:00:01;1.33;;;1.33;;
41099;SDS011;26844;53.686;-6.346;2023-12-29T12:02:27;1.50;;;1.50;;
41099;SDS011;26844;53.686;-6.346;2023-12-29T12:04:54;1.55;;;1.55;;
41099;SDS011;26844;53.686;-6.346;2023-12-29T12:09:47;1.70;;;1.70;;
41099;SDS011;26844;53.686;-6.346;2023-12-29T12:12:14;1.70;;;1.70;;
41099;SDS011;26844;53.686;-6.346;2023-12-29T12:14:59;1.60;;;1.60;;
41099;SDS011;26844;53.686;-6.346;2023-12-29T12:17:35;1.95;;;1.95;;
41099;SDS011;26844;53.686;-6.346;2023-12-29T12:20:06;1.60;;;1.60;;
41099;SDS011;26844;53.686;-6.346;2023-12-29T12:22:33;1.63;;;1.63;;
41099;SDS011;26844;53.686;-6.346;2023-12-29T12:25:00;1.58;;;1.58;;
41099;SDS011;26844;53.686;-6.346;2023-12-29T12:27:26;1.50;;;1.50;;
41099;SDS011;26844;53.686;-6.346;2023-12-29T12:29:55;1.83;;;1.83;;
41099;SDS011;26844;53.686;-6.346;2023-12-29T12:32:22;1.52;;;1.52;;
41099;SDS011;26844;53.686;-6.346;2023-12-29T12:34:47;1.92;;;1.92;;
41099;SDS011;26844;53.686;-6.346;2023-12-29T12:37:18;1.67;;;1.67;;
41099;SDS011;26844;53.686;-6.346;2023-12-29T12:39:43;1.77;;;1.77;;
41099;SDS011;26844;53.686;-6.346;2023-12-29T12:42:08;1.98;;;1.98;;
41099;SDS011;26844;53.686;-6.346;2023-12-29T12:44:34;1.42;;;1.42;;
41099;SDS011;26844;53.686;-6.346;2023-12-29T12:46:59;1.80;;;1.80;;
41099;SDS011;26844;53.686;-6.346;2023-12-29T12:51:55;1.40;;;1.40;;
41099;SDS011;26844;53.686;-6.346;2023-12-29T12:54:20;1.90;;;1.90;;
41099;SDS011;26844;53.686;-6.346;2023-12-29T12:56:46;1.63;;;1.63;;
41099;SDS011;26844;53.686;-6.346;2023-12-29T12:59:12;1.60;;;1.60;;
41099;SDS011;26844;53.686;-6.346;2023-12-29T13:01:38;1.70;;;1.70;;
41099;SDS011;26844;53.686;-6.346;2023-12-29T13:04:03;1.20;;;1.20;;
41099;SDS011;26844;53.686;-6.346;2023-12-29T13:06:30;1.60;;;1.60;;
41099;SDS011;26844;53.686;-6.346;2023-12-29T13:08:56;1.80;;;1.80;;
41099;SDS011;26844;53.686;-6.346;2023-12-29T13:11:21;1.50;;;1.50;;
41099;SDS011;26844;53.686;-6.346;2023-12-29T13:16:14;2.20;;;2.20;;
41099;SDS011;26844;53.686;-6.346;2023-12-29T13:18:39;1.60;;;1.60;;
41099;SDS011;26844;53.686;-6.346;2023-12-29T13:21:05;2.13;;;2.13;;
41099;SDS011;26844;53.686;-6.346;2023-12-29T13:23:31;1.90;;;1.90;;
41099;SDS011;26844;53.686;-6.346;2023-12-29T13:25:57;1.60;;;1.60;;
41099;SDS011;26844;53.686;-6.346;2023-12-29T13:28:22;1.75;;;1.75;;
41099;SDS011;26844;53.686;-6.346;2023-12-29T13:30:48;1.90;;;1.90;;
41099;SDS011;26844;53.686;-6.346;2023-12-29T13:33:16;1.70;;;1.70;;
41099;SDS011;26844;53.686;-6.346;2023-12-29T13:35:50;1.73;;;1.73;;
41099;SDS011;26844;53.686;-6.346;2023-12-29T13:38:21;1.63;;;1.63;;
41099;SDS011;26844;53.686;-6.346;2023-12-29T13:40:59;1.58;;;1.58;;
41099;SDS011;26844;53.686;-6.346;2023-12-29T13:43:28;1.42;;;1.42;;
41099;SDS011;26844;53.686;-6.346;2023-12-29T13:45:55;1.50;;;1.50;;
41099;SDS011;26844;53.686;-6.346;2023-12-29T13:48:22;1.40;;;1.40;;
41099;SDS011;26844;53.686;-6.346;2023-12-29T13:50:48;1.38;;;1.38;;
41099;SDS011;26844;53.686;-6.346;2023-12-29T13:53:20;1.30;;;1.30;;
41099;SDS011;26844;53.686;-6.346;2023-12-29T13:55:46;1.40;;;1.40;;
41099;SDS011;26844;53.686;-6.346;2023-12-29T13:58:11;1.30;;;1.30;;
41099;SDS011;26844;53.686;-6.346;2023-12-29T14:00:37;1.77;;;1.77;;
41099;SDS011;26844;53.686;-6.346;2023-12-29T14:03:23;1.17;;;1.17;;
41099;SDS011;26844;53.686;-6.346;2023-12-29T14:05:52;1.40;;;1.40;;
41099;SDS011;26844;53.686;-6.346;2023-12-29T14:08:27;1.23;;;1.23;;
41099;SDS011;26844;53.686;-6.346;2023-12-29T14:10:56;1.10;;;1.10;;
41099;SDS011;26844;53.686;-6.346;2023-12-29T14:13:22;1.20;;;1.20;;
41099;SDS011;26844;53.686;-6.346;2023-12-29T14:15:47;1.27;;;1.27;;
41099;SDS011;26844;53.686;-6.346;2023-12-29T14:20:44;1.50;;;1.50;;
41099;SDS011;26844;53.686;-6.346;2023-12-29T14:23:09;1.23;;;1.23;;
41099;SDS011;26844;53.686;-6.346;2023-12-29T14:25:35;1.20;;;1.20;;
41099;SDS011;26844;53.686;-6.346;2023-12-29T14:28:02;1.25;;;1.25;;
41099;SDS011;26844;53.686;-6.346;2023-12-29T14:30:27;1.42;;;1.42;;
41099;SDS011;26844;53.686;-6.346;2023-12-29T14:32:56;1.20;;;1.20;;
41099;SDS011;26844;53.686;-6.346;2023-12-29T14:35:21;1.45;;;1.45;;
41099;SDS011;26844;53.686;-6.346;2023-12-29T14:37:47;1.73;;;1.73;;
41099;SDS011;26844;53.686;-6.346;2023-12-29T14:40:12;1.30;;;1.30;;
41099;SDS011;26844;53.686;-6.346;2023-12-29T14:42:38;1.30;;;1.30;;
41099;SDS011;26844;53.686;-6.346;2023-12-29T14:45:05;1.40;;;1.40;;
41099;SDS011;26844;53.686;-6.346;2023-12-29T14:47:31;1.20;;;1.20;;
41099;SDS011;26844;53.686;-6.346;2023-12-29T14:49:56;1.40;;;1.40;;
41099;SDS011;26844;53.686;-6.346;2023-12-29T14:52:21;1.30;;;1.30;;
41099;SDS011;26844;53.686;-6.346;2023-12-29T14:54:47;1.50;;;1.50;;